Colgate, North Dakota
Current Conditions -  °F | °C
As of 6:15 PM on Tuesday 25 Nov 2014 (Local Time) from KBAC Reporting Station
Light Snow Light Snow  
Wind Chill: 15°   Ceiling: 300
Heat Index: 25°   Visibility: 1.7mi
Dew Point: 25°   Wind: 10mph
Humidity: 100%   Direction: 90°E
Pressure: 29.86"   Gusts: NA
Location:  47.1965°N, 97.7696°W
Report Text: KBAC 260015Z AUTO 09009KT 1 3/4SM -SN BKN003 M04/M04 A2986 RMK AO2 P0003
Loading
Personal Weather Stations






























Interactive Weather Map New forecast layout! Learn more

10-Day Weather Forecast

Advertisements
Track Severe Weather on mobile